createdAt,value
2022-08-22T00:02:15.228Z,5.90
2022-08-22T00:02:45.362Z,3.25
2022-08-22T00:02:56.172Z,3.75
2022-08-22T00:03:06.789Z,6.60
2022-08-22T00:03:08.941Z,5.10
2022-08-22T00:03:16.107Z,8.25
2022-08-22T00:04:50.097Z,6.18
2022-08-22T00:07:50.115Z,5.80
2022-08-22T00:10:29.694Z,5.82
2022-08-22T00:13:24.012Z,8.57
2022-08-22T00:16:05.407Z,7.30
2022-08-22T00:18:51.051Z,6.82
2022-08-22T00:21:32.402Z,7.35
2022-08-22T00:24:08.941Z,6.72
2022-08-22T00:27:18.155Z,7.75
2022-08-22T00:29:56.439Z,5.15
2022-08-22T00:32:36.769Z,5.07
2022-08-22T00:35:30.747Z,5.30
2022-08-22T00:38:12.590Z,5.22
2022-08-22T00:41:01.322Z,7.47
2022-08-22T00:43:41.057Z,9.02
2022-08-22T00:46:54.049Z,7.70
2022-08-22T00:49:52.067Z,5.07
2022-08-22T00:52:49.648Z,8.07
2022-08-22T00:55:45.430Z,10.95
2022-08-22T00:58:37.155Z,13.52
2022-08-22T01:01:11.360Z,10.55
2022-08-22T01:03:50.648Z,9.52
2022-08-22T01:06:45.339Z,8.25
2022-08-22T01:09:57.267Z,8.40
2022-08-22T01:12:56.894Z,12.90
2022-08-22T01:15:32.305Z,23.80
2022-08-22T01:18:20.942Z,14.98
2022-08-22T01:21:15.482Z,10.63
2022-08-22T01:24:03.787Z,10.35
2022-08-22T01:29:30.814Z,8.85
2022-08-22T01:32:29.529Z,8.70
2022-08-22T01:35:14.978Z,10.52
2022-08-22T01:38:13.523Z,10.75
2022-08-22T01:41:23.316Z,13.80
2022-08-22T01:44:05.922Z,12.20
2022-08-22T01:47:07.985Z,14.05
2022-08-22T01:50:04.271Z,13.82
2022-08-22T01:52:44.923Z,12.05
2022-08-22T01:55:53.627Z,11.60
2022-08-22T01:58:28.915Z,12.60
2022-08-22T02:01:13.483Z,14.07
2022-08-22T02:03:53.234Z,15.38
2022-08-22T02:06:39.334Z,13.25
2022-08-22T02:09:54.197Z,14.55
2022-08-22T02:12:43.192Z,22.30
2022-08-22T02:15:23.082Z,22.83
2022-08-22T02:18:17.982Z,25.50
2022-08-22T02:21:32.654Z,26.73
2022-08-22T02:24:17.971Z,23.33
2022-08-22T02:26:59.465Z,21.55
2022-08-22T02:29:54.761Z,18.83
2022-08-22T02:32:36.741Z,21.30
2022-08-22T02:35:22.176Z,20.38
2022-08-22T02:38:11.849Z,17.45
2022-08-22T02:41:13.068Z,16.77
2022-08-22T02:44:10.532Z,18.27
2022-08-22T02:47:10.207Z,19.17
2022-08-22T02:50:20.582Z,19.00
2022-08-22T02:53:08.227Z,15.70
2022-08-22T02:55:57.128Z,16.65
2022-08-22T02:58:48.091Z,16.05
2022-08-22T03:01:31.085Z,14.65
2022-08-22T03:07:23.366Z,9.63
2022-08-22T03:10:19.507Z,11.23
2022-08-22T03:13:26.046Z,8.75
2022-08-22T03:16:13.238Z,7.00
2022-08-22T03:19:43.015Z,7.30
2022-08-22T03:22:26.959Z,6.80
2022-08-22T03:25:20.620Z,7.00
2022-08-22T03:28:03.436Z,6.97
2022-08-22T03:30:45.468Z,5.32
2022-08-22T03:33:35.430Z,6.38
2022-08-22T03:36:10.816Z,5.70
2022-08-22T03:39:17.397Z,5.95
2022-08-22T03:42:20.165Z,6.68
2022-08-22T03:45:16.959Z,8.98
2022-08-22T03:48:15.973Z,8.20
2022-08-22T03:50:57.423Z,10.10
2022-08-22T03:53:48.802Z,10.35
2022-08-22T03:56:41.188Z,10.48
2022-08-22T03:59:32.654Z,10.65
2022-08-22T04:02:41.755Z,12.73
2022-08-22T04:07:52.933Z,12.10
2022-08-22T04:11:02.456Z,11.93
2022-08-22T04:14:10.582Z,10.93
2022-08-22T04:16:56.273Z,8.50
2022-08-22T04:19:48.019Z,8.88
2022-08-22T04:22:30.426Z,8.93
2022-08-22T04:25:40.102Z,10.45
2022-08-22T04:28:36.079Z,9.88
2022-08-22T04:31:09.469Z,9.20
2022-08-22T04:33:59.184Z,9.13
2022-08-22T04:36:47.351Z,9.65
2022-08-22T04:39:24.233Z,9.35
2022-08-22T04:42:35.127Z,9.88
2022-08-22T04:45:21.715Z,7.90
2022-08-22T04:47:56.155Z,9.50
2022-08-22T04:50:30.715Z,8.27
2022-08-22T04:53:25.833Z,8.20
2022-08-22T04:56:08.019Z,8.40
2022-08-22T04:59:20.556Z,7.80
2022-08-22T05:02:00.558Z,7.97
2022-08-22T05:04:40.225Z,9.02
2022-08-22T05:07:39.245Z,9.57
2022-08-22T05:10:18.006Z,9.20
2022-08-22T05:12:56.622Z,9.00
2022-08-22T05:15:36.216Z,10.38
2022-08-22T05:18:14.917Z,10.48
2022-08-22T05:20:50.271Z,11.18
2022-08-22T05:23:20.804Z,11.30
2022-08-22T05:25:55.762Z,9.57
2022-08-22T05:28:28.962Z,10.05
2022-08-22T05:31:00.354Z,9.63
2022-08-22T05:33:39.698Z,8.57
2022-08-22T05:36:24.573Z,10.15
2022-08-22T05:39:25.295Z,9.15
2022-08-22T05:41:58.210Z,9.25
2022-08-22T05:44:34.497Z,11.35
2022-08-22T05:47:44.080Z,10.25
2022-08-22T05:50:51.123Z,9.65
2022-08-22T05:53:43.668Z,10.82
2022-08-22T05:56:33.147Z,10.57
2022-08-22T05:59:24.480Z,11.00
2022-08-22T06:02:04.184Z,11.68
2022-08-22T06:04:56.679Z,10.50
2022-08-22T06:07:35.461Z,8.93
2022-08-22T06:10:27.374Z,8.77
2022-08-22T06:13:16.936Z,8.35
2022-08-22T06:16:11.820Z,8.88
2022-08-22T06:18:45.064Z,9.48
2022-08-22T06:21:37.641Z,7.90
2022-08-22T06:24:16.030Z,7.30
2022-08-22T06:26:52.462Z,6.22
2022-08-22T06:29:45.754Z,6.75
2022-08-22T06:32:58.253Z,6.30
2022-08-22T06:35:30.030Z,6.15
2022-08-22T06:38:02.721Z,5.85
2022-08-22T06:40:33.930Z,7.05
2022-08-22T06:43:06.053Z,6.57
2022-08-22T06:45:37.761Z,7.05
2022-08-22T06:48:08.088Z,7.40
2022-08-22T06:50:44.789Z,7.47
2022-08-22T06:53:20.329Z,7.03
2022-08-22T06:55:58.720Z,8.60
2022-08-22T06:58:55.344Z,10.50
2022-08-22T07:01:30.892Z,11.13
2022-08-22T07:04:10.687Z,11.73
2022-08-22T07:06:47.573Z,10.57
2022-08-22T07:12:03.724Z,9.05
2022-08-22T07:14:42.853Z,8.77
2022-08-22T07:17:23.334Z,7.65
2022-08-22T07:20:07.450Z,8.57
2022-08-22T07:22:39.300Z,8.85
2022-08-22T07:25:14.947Z,9.18
2022-08-22T07:27:54.769Z,9.27
2022-08-22T07:30:28.586Z,9.65
2022-08-22T07:33:26.811Z,9.82
2022-08-22T07:36:03.105Z,8.68
2022-08-22T07:38:33.445Z,9.60
2022-08-22T07:41:16.813Z,9.88
2022-08-22T07:44:07.943Z,10.00
2022-08-22T07:46:51.456Z,12.07
2022-08-22T07:49:39.914Z,10.35
2022-08-22T07:52:20.866Z,10.07
2022-08-22T07:54:59.331Z,11.23
2022-08-22T07:57:37.891Z,9.60
2022-08-22T08:00:15.674Z,9.68
2022-08-22T08:02:54.708Z,9.77
2022-08-22T08:05:29.682Z,9.90
2022-08-22T08:08:02.760Z,11.27
2022-08-22T08:10:36.798Z,11.63
2022-08-22T08:13:20.704Z,10.07
2022-08-22T08:15:52.712Z,8.25
2022-08-22T08:18:27.962Z,10.15
2022-08-22T08:21:04.920Z,9.73
2022-08-22T08:23:42.931Z,8.23
2022-08-22T08:26:22.573Z,8.60
2022-08-22T08:28:56.799Z,8.93
2022-08-22T08:31:43.394Z,7.03
2022-08-22T08:34:25.723Z,6.75
2022-08-22T08:37:04.088Z,7.35
2022-08-22T08:39:49.802Z,7.75
2022-08-22T08:43:22.249Z,7.30
2022-08-22T08:46:19.547Z,7.13
2022-08-22T08:49:25.789Z,8.38
2022-08-22T08:52:17.482Z,7.15
2022-08-22T08:55:21.908Z,6.85
2022-08-22T08:58:22.402Z,6.55
2022-08-22T09:00:57.689Z,6.47
2022-08-22T09:03:59.729Z,6.38
2022-08-22T09:09:52.507Z,6.57
2022-08-22T09:13:11.512Z,6.03
2022-08-22T09:16:05.327Z,7.07
2022-08-22T09:19:09.907Z,7.05
2022-08-22T09:22:15.039Z,8.10
2022-08-22T09:24:53.124Z,6.88
2022-08-22T09:27:39.310Z,7.68
2022-08-22T09:30:16.916Z,5.68
2022-08-22T09:33:13.789Z,7.78
2022-08-22T09:36:05.666Z,6.63
2022-08-22T09:38:55.614Z,7.50
2022-08-22T09:41:52.256Z,7.15
2022-08-22T09:44:40.560Z,7.05
2022-08-22T09:47:24.723Z,7.10
2022-08-22T09:50:21.769Z,8.30
2022-08-22T09:52:58.566Z,7.20
2022-08-22T09:55:40.137Z,7.20
2022-08-22T09:58:24.853Z,8.65
2022-08-22T10:01:08.343Z,8.98
2022-08-22T10:03:47.864Z,7.97
2022-08-22T10:06:30.181Z,7.32
2022-08-22T10:09:05.184Z,8.60
2022-08-22T10:11:51.292Z,7.88
2022-08-22T10:14:29.878Z,7.53
2022-08-22T10:17:07.138Z,8.27
2022-08-22T10:19:54.225Z,6.07
2022-08-22T10:23:09.367Z,6.10
2022-08-22T10:25:54.737Z,6.97
2022-08-22T10:28:49.086Z,6.25
2022-08-22T10:31:25.593Z,5.53
2022-08-22T10:34:12.006Z,6.65
2022-08-22T10:37:01.705Z,5.53
2022-08-22T10:39:48.862Z,5.65
2022-08-22T10:42:35.357Z,6.05
2022-08-22T10:45:23.944Z,5.70
2022-08-22T10:48:12.498Z,5.75
2022-08-22T10:50:50.490Z,6.47
2022-08-22T10:53:44.704Z,7.40
2022-08-22T10:56:21.378Z,6.53
2022-08-22T10:59:02.482Z,7.53
2022-08-22T11:01:47.439Z,9.27
2022-08-22T11:04:30.869Z,7.65
2022-08-22T11:07:39.584Z,8.45
2022-08-22T11:10:22.477Z,7.78
2022-08-22T11:13:23.339Z,7.07
2022-08-22T11:16:04.389Z,8.68
2022-08-22T11:19:14.743Z,8.48
2022-08-22T11:22:07.302Z,9.20
2022-08-22T11:25:04.399Z,8.48
2022-08-22T11:28:02.888Z,9.52
2022-08-22T11:31:13.968Z,9.10
2022-08-22T11:34:13.325Z,9.73
2022-08-22T11:36:56.303Z,10.35
2022-08-22T11:39:49.094Z,9.10
2022-08-22T11:42:29.529Z,8.68
2022-08-22T11:45:07.461Z,9.32
2022-08-22T11:47:49.489Z,10.15
2022-08-22T11:50:30.830Z,9.15
2022-08-22T11:53:15.187Z,9.27
2022-08-22T11:55:58.315Z,9.55
2022-08-22T11:58:55.229Z,8.88
2022-08-22T12:01:34.285Z,8.50
2022-08-22T12:04:15.361Z,8.60
2022-08-22T12:06:49.674Z,8.52
2022-08-22T12:09:41.249Z,8.57
2022-08-22T12:12:27.429Z,7.47
2022-08-22T12:15:08.912Z,9.43
2022-08-22T12:17:55.267Z,8.60
2022-08-22T12:20:56.192Z,7.93
2022-08-22T12:23:48.622Z,7.40
2022-08-22T12:27:08.224Z,7.43
2022-08-22T12:30:06.037Z,7.32
2022-08-22T12:33:08.529Z,6.15
2022-08-22T12:36:09.602Z,6.15
2022-08-22T12:39:21.344Z,5.88
2022-08-22T12:42:12.522Z,4.43
2022-08-22T12:44:54.744Z,5.45
2022-08-22T12:48:01.797Z,4.03
2022-08-22T12:50:53.656Z,4.20
2022-08-22T12:53:58.113Z,5.07
2022-08-22T12:57:24.382Z,5.70
2022-08-22T13:00:11.696Z,4.55
2022-08-22T13:02:46.337Z,5.53
2022-08-22T13:05:22.340Z,4.40
2022-08-22T13:08:04.545Z,4.35
2022-08-22T13:10:44.732Z,5.30
2022-08-22T13:13:36.925Z,5.70
2022-08-22T13:16:20.995Z,5.57
2022-08-22T13:19:07.652Z,5.30
2022-08-22T13:21:51.320Z,5.85
2022-08-22T13:24:52.426Z,5.10
2022-08-22T13:27:30.291Z,5.82
2022-08-22T13:30:14.753Z,5.13
2022-08-22T13:32:58.431Z,5.32
2022-08-22T13:35:44.693Z,6.50
2022-08-22T13:38:56.249Z,5.43
2022-08-22T13:41:42.706Z,5.88
2022-08-22T13:44:21.712Z,5.30
2022-08-22T13:47:12.946Z,5.90
2022-08-22T13:49:55.850Z,6.13
2022-08-22T13:52:38.077Z,5.82
2022-08-22T13:55:27.651Z,6.28
2022-08-22T13:58:18.864Z,5.65
2022-08-22T14:01:31.054Z,5.45
2022-08-22T14:04:01.542Z,4.82
2022-08-22T14:06:58.446Z,5.38
2022-08-22T14:10:04.203Z,5.90
2022-08-22T14:12:58.908Z,5.32
2022-08-22T14:15:45.442Z,4.85
2022-08-22T14:18:30.417Z,4.47
2022-08-22T14:21:40.908Z,4.70
2022-08-22T14:24:55.802Z,5.82
2022-08-22T14:27:47.706Z,5.30
2022-08-22T14:30:35.745Z,5.00
2022-08-22T14:33:32.879Z,5.13
2022-08-22T14:36:14.564Z,5.25
2022-08-22T14:39:31.387Z,4.13
2022-08-22T14:42:28.831Z,5.70
2022-08-22T14:45:10.161Z,4.80
2022-08-22T14:48:14.255Z,4.80
2022-08-22T14:51:04.196Z,4.50
2022-08-22T14:53:38.113Z,5.47
2022-08-22T14:56:19.960Z,3.72
2022-08-22T14:58:53.577Z,4.85
2022-08-22T15:01:29.694Z,5.38
2022-08-22T15:04:11.011Z,4.93
2022-08-22T15:06:52.615Z,5.60
2022-08-22T15:09:37.161Z,5.97
2022-08-22T15:12:28.845Z,5.57
2022-08-22T15:15:09.393Z,4.93
2022-08-22T15:17:50.812Z,4.90
2022-08-22T15:20:49.386Z,5.35
2022-08-22T15:23:25.971Z,4.15
2022-08-22T15:26:13.260Z,5.30
2022-08-22T15:28:44.978Z,6.10
2022-08-22T15:31:24.229Z,5.35
2022-08-22T15:34:06.484Z,5.22
2022-08-22T15:36:36.999Z,5.72
2022-08-22T15:39:37.945Z,6.45
2022-08-22T15:42:08.711Z,7.53
2022-08-22T15:44:44.183Z,7.55
2022-08-22T15:47:40.951Z,7.22
2022-08-22T15:50:29.697Z,8.02
2022-08-22T15:53:26.494Z,7.97
2022-08-22T15:56:08.921Z,8.77
2022-08-22T15:58:48.859Z,8.73
2022-08-22T16:01:25.828Z,6.57
2022-08-22T16:04:02.219Z,7.95
2022-08-22T16:06:57.874Z,7.32
2022-08-22T16:09:48.695Z,8.25
2022-08-22T16:12:37.188Z,7.68
2022-08-22T16:15:29.585Z,8.43
2022-08-22T16:18:01.198Z,6.72
2022-08-22T16:20:31.612Z,7.47
2022-08-22T16:23:01.885Z,9.15
2022-08-22T16:28:57.412Z,6.85
2022-08-22T16:31:34.430Z,6.93
2022-08-22T16:34:19.740Z,6.72
2022-08-22T16:36:53.284Z,6.85
2022-08-22T16:39:23.699Z,7.10
2022-08-22T16:42:17.195Z,5.95
2022-08-22T16:45:13.763Z,5.90
2022-08-22T16:47:58.687Z,6.28
2022-08-22T16:50:35.576Z,5.35
2022-08-22T16:53:23.977Z,5.75
2022-08-22T16:56:06.623Z,5.80
2022-08-22T16:59:22.335Z,4.95
2022-08-22T17:02:13.161Z,5.40
2022-08-22T17:04:58.883Z,4.95
2022-08-22T17:07:41.612Z,5.18
2022-08-22T17:10:30.222Z,5.03
2022-08-22T17:13:15.744Z,5.47
2022-08-22T17:15:52.258Z,5.22
2022-08-22T17:18:41.448Z,5.03
2022-08-22T17:21:40.607Z,4.25
2022-08-22T17:24:37.979Z,3.80
2022-08-22T17:27:30.562Z,4.85
2022-08-22T17:30:11.741Z,3.55
2022-08-22T17:32:57.180Z,3.80
2022-08-22T17:35:47.049Z,4.03
2022-08-22T17:38:35.887Z,3.83
2022-08-22T17:44:06.296Z,3.65
2022-08-22T17:46:54.777Z,3.30
2022-08-22T17:49:40.300Z,3.28
2022-08-22T17:52:13.736Z,3.53
2022-08-22T17:55:02.214Z,2.90
2022-08-22T17:57:41.101Z,3.05
2022-08-22T18:00:25.538Z,3.55
2022-08-22T18:03:27.062Z,3.05
2022-08-22T18:06:18.942Z,3.33
2022-08-22T18:09:18.550Z,4.55
2022-08-22T18:12:04.841Z,3.50
2022-08-22T18:14:56.542Z,3.70
2022-08-22T18:17:59.283Z,3.60
2022-08-22T18:20:46.001Z,3.35
2022-08-22T18:23:42.835Z,2.92
2022-08-22T18:26:40.676Z,3.92
2022-08-22T18:29:20.857Z,3.35
2022-08-22T18:31:51.314Z,3.10
2022-08-22T18:34:25.442Z,3.40
2022-08-22T18:37:05.492Z,3.30
2022-08-22T18:39:56.386Z,3.60
2022-08-22T18:42:45.538Z,3.50
2022-08-22T18:45:47.489Z,3.33
2022-08-22T18:48:25.028Z,3.25
2022-08-22T18:51:29.112Z,3.47
2022-08-22T18:54:08.243Z,3.45
2022-08-22T18:56:51.595Z,3.83
2022-08-22T18:59:44.499Z,3.00
2022-08-22T19:02:23.947Z,3.85
2022-08-22T19:05:13.089Z,3.95
2022-08-22T19:08:12.949Z,3.65
2022-08-22T19:10:53.858Z,3.72
2022-08-22T19:13:48.890Z,4.28
2022-08-22T19:19:17.106Z,3.42
2022-08-22T19:22:21.769Z,3.38
2022-08-22T19:25:16.105Z,3.30
2022-08-22T19:28:07.483Z,3.10
2022-08-22T19:30:51.408Z,3.58
2022-08-22T19:33:39.738Z,3.33
2022-08-22T19:36:34.877Z,3.60
2022-08-22T19:39:43.460Z,3.53
2022-08-22T19:42:20.873Z,2.85
2022-08-22T19:45:01.981Z,3.08
2022-08-22T19:48:14.121Z,3.20
2022-08-22T19:50:45.468Z,3.15
2022-08-22T19:53:29.214Z,3.38
2022-08-22T19:56:05.578Z,3.38
2022-08-22T19:58:58.024Z,3.50
2022-08-22T20:01:44.433Z,3.17
2022-08-22T20:04:48.971Z,3.40
2022-08-22T20:07:47.421Z,2.55
2022-08-22T20:10:29.624Z,2.90
2022-08-22T20:13:13.073Z,2.55
2022-08-22T20:16:15.234Z,3.22
2022-08-22T20:19:06.669Z,2.67
2022-08-22T20:21:47.430Z,3.03
2022-08-22T20:24:29.583Z,2.88
2022-08-22T20:27:13.912Z,3.05
2022-08-22T20:30:05.878Z,3.33
2022-08-22T20:32:46.587Z,2.60
2022-08-22T20:35:36.129Z,2.90
2022-08-22T20:38:12.608Z,3.05
2022-08-22T20:40:55.355Z,4.10
2022-08-22T20:43:38.481Z,3.17
2022-08-22T20:46:16.574Z,3.13
2022-08-22T20:48:48.938Z,3.00
2022-08-22T20:51:28.519Z,3.50
2022-08-22T20:54:17.152Z,2.97
2022-08-22T20:56:53.971Z,3.72
2022-08-22T20:59:32.643Z,3.13
2022-08-22T21:02:30.369Z,3.88
2022-08-22T21:05:08.174Z,3.63
2022-08-22T21:07:44.895Z,3.38
2022-08-22T21:10:41.694Z,3.90
2022-08-22T21:13:23.224Z,3.33
2022-08-22T21:15:55.476Z,2.67
2022-08-22T21:18:41.031Z,3.42
2022-08-22T21:21:17.027Z,3.05
2022-08-22T21:23:52.559Z,3.38
2022-08-22T21:26:37.873Z,3.28
2022-08-22T21:29:10.536Z,3.03
2022-08-22T21:31:49.765Z,3.00
2022-08-22T21:34:44.749Z,3.13
2022-08-22T21:37:25.334Z,4.05
2022-08-22T21:40:03.358Z,2.78
2022-08-22T21:42:41.775Z,3.60
2022-08-22T21:45:52.253Z,3.22
2022-08-22T21:48:58.329Z,4.00
2022-08-22T21:51:45.907Z,2.72
2022-08-22T21:54:31.109Z,3.10
2022-08-22T21:57:17.360Z,3.92
2022-08-22T21:59:59.778Z,4.05
2022-08-22T22:02:35.294Z,4.43
2022-08-22T22:05:20.553Z,4.07
2022-08-22T22:07:50.824Z,4.40
2022-08-22T22:10:23.890Z,3.72
2022-08-22T22:12:57.846Z,3.45
2022-08-22T22:15:33.093Z,3.58
2022-08-22T22:18:03.482Z,3.97
2022-08-22T22:20:34.727Z,4.30
2022-08-22T22:23:05.859Z,4.45
2022-08-22T22:25:40.786Z,4.45
2022-08-22T22:28:18.042Z,4.43
2022-08-22T22:30:51.876Z,4.22
2022-08-22T22:33:24.640Z,3.67
2022-08-22T22:35:59.028Z,4.00
2022-08-22T22:38:29.562Z,4.18
2022-08-22T22:41:00.585Z,4.60
2022-08-22T22:43:31.370Z,4.03
2022-08-22T22:46:02.649Z,3.95
2022-08-22T22:48:34.121Z,3.88
2022-08-22T22:51:13.707Z,3.45
2022-08-22T22:53:46.127Z,4.38
2022-08-22T22:56:21.245Z,3.47
2022-08-22T22:59:00.953Z,4.18
2022-08-22T23:02:02.755Z,4.28
2022-08-22T23:04:35.701Z,3.95
2022-08-22T23:07:07.496Z,4.20
2022-08-22T23:09:44.530Z,3.33
2022-08-22T23:12:16.824Z,3.88
2022-08-22T23:14:47.302Z,4.57
2022-08-22T23:17:18.757Z,3.28
2022-08-22T23:19:49.418Z,3.88
2022-08-22T23:22:20.929Z,3.97
2022-08-22T23:24:51.852Z,4.28
2022-08-22T23:27:22.699Z,4.15
2022-08-22T23:29:53.269Z,4.43
2022-08-22T23:32:23.855Z,4.32
2022-08-22T23:34:55.840Z,4.55
2022-08-22T23:37:26.358Z,4.75
2022-08-22T23:42:26.709Z,3.83
2022-08-22T23:47:26.657Z,4.57
2022-08-22T23:49:57.007Z,4.15
2022-08-22T23:52:27.564Z,4.00
2022-08-22T23:54:58.211Z,4.20
2022-08-22T23:57:30.002Z,3.92
